createdAt,value
2018-01-11T00:01:09.106Z,24.47
2018-01-11T00:03:36.660Z,21.73
2018-01-11T00:06:04.191Z,23.47
2018-01-11T00:08:32.512Z,25.83
2018-01-11T00:11:00.041Z,23.93
2018-01-11T00:13:27.594Z,22.77
2018-01-11T00:15:55.901Z,20.40
2018-01-11T00:18:23.447Z,20.70
2018-01-11T00:20:50.973Z,20.40
2018-01-11T00:23:19.295Z,19.67
2018-01-11T00:25:46.834Z,18.33
2018-01-11T00:28:14.400Z,18.60
2018-01-11T00:30:41.927Z,16.60
2018-01-11T00:33:10.341Z,16.20
2018-01-11T00:35:37.861Z,15.80
2018-01-11T00:38:05.393Z,16.90
2018-01-11T00:40:32.952Z,17.57
2018-01-11T00:43:00.482Z,16.43
2018-01-11T00:45:28.040Z,15.57
2018-01-11T00:47:55.610Z,16.33
2018-01-11T00:50:23.186Z,17.00
2018-01-11T00:52:50.719Z,17.50
2018-01-11T00:55:18.265Z,17.43
2018-01-11T00:57:45.798Z,16.07
2018-01-11T01:00:13.345Z,15.87
2018-01-11T01:02:40.915Z,16.10
2018-01-11T01:05:08.455Z,14.70
2018-01-11T01:07:35.990Z,14.43
2018-01-11T01:10:03.564Z,13.23
2018-01-11T01:12:31.878Z,15.93
2018-01-11T01:14:59.443Z,15.50
2018-01-11T01:17:27.738Z,16.67
2018-01-11T01:19:56.046Z,15.23
2018-01-11T01:22:23.578Z,14.87
2018-01-11T01:24:51.130Z,13.47
2018-01-11T01:27:19.432Z,12.87
2018-01-11T01:29:46.993Z,13.17
2018-01-11T01:32:14.526Z,13.27
2018-01-11T01:34:42.093Z,12.13
2018-01-11T01:37:09.650Z,11.97
2018-01-11T01:39:37.182Z,13.50
2018-01-11T01:42:04.737Z,12.80
2018-01-11T01:44:32.271Z,13.20
2018-01-11T01:46:59.846Z,11.77
2018-01-11T01:49:27.373Z,11.00
2018-01-11T01:51:54.921Z,10.87
2018-01-11T01:54:22.451Z,11.67
2018-01-11T01:56:50.766Z,11.60
2018-01-11T01:59:18.291Z,11.97
2018-01-11T02:01:46.615Z,11.80
2018-01-11T02:04:14.142Z,11.23
2018-01-11T02:06:41.698Z,10.47
2018-01-11T02:09:09.995Z,11.03
2018-01-11T02:11:37.543Z,10.93
2018-01-11T02:14:05.075Z,12.47
2018-01-11T02:16:32.625Z,11.07
2018-01-11T02:19:00.150Z,12.43
2018-01-11T02:21:27.701Z,11.63
2018-01-11T02:23:55.231Z,10.90
2018-01-11T02:26:23.554Z,11.80
2018-01-11T02:28:51.082Z,11.33
2018-01-11T02:31:18.620Z,10.60
2018-01-11T02:33:46.950Z,10.93
2018-01-11T02:36:14.478Z,10.67
2018-01-11T02:38:42.031Z,10.60
2018-01-11T02:41:09.567Z,10.73
2018-01-11T02:43:37.882Z,11.37
2018-01-11T02:46:05.411Z,11.77
2018-01-11T02:48:33.734Z,11.70
2018-01-11T02:51:01.261Z,12.80
2018-01-11T02:53:29.579Z,12.30
2018-01-11T02:55:57.108Z,11.17
2018-01-11T02:58:24.668Z,10.50
2018-01-11T03:00:52.206Z,12.00
2018-01-11T03:03:20.529Z,11.00
2018-01-11T03:05:48.054Z,11.43
2018-01-11T03:08:16.375Z,11.70
2018-01-11T03:10:43.905Z,12.30
2018-01-11T03:13:11.451Z,12.07
2018-01-11T03:15:38.974Z,11.07
2018-01-11T03:18:06.530Z,12.40
2018-01-11T03:20:34.059Z,13.67
2018-01-11T03:23:01.614Z,13.50
2018-01-11T03:25:29.142Z,14.43
2018-01-11T03:27:57.457Z,13.47
2018-01-11T03:30:24.978Z,11.23
2018-01-11T03:32:53.272Z,12.63
2018-01-11T03:35:20.822Z,13.17
2018-01-11T03:37:48.354Z,11.90
2018-01-11T03:40:15.914Z,12.30
2018-01-11T03:42:43.438Z,12.80
2018-01-11T03:45:10.984Z,11.40
2018-01-11T03:47:38.506Z,9.90
2018-01-11T03:50:06.831Z,10.93
2018-01-11T03:52:34.353Z,11.53
2018-01-11T03:55:02.674Z,12.03
2018-01-11T03:57:30.202Z,11.77
2018-01-11T03:59:57.754Z,11.03
2018-01-11T04:02:26.046Z,12.07
2018-01-11T04:04:53.599Z,11.70
2018-01-11T04:07:21.131Z,13.43
2018-01-11T04:09:49.452Z,11.90
2018-01-11T04:12:16.977Z,12.80
2018-01-11T04:14:45.290Z,12.60
2018-01-11T04:17:12.809Z,12.67
2018-01-11T04:19:41.126Z,11.37
2018-01-11T04:22:08.658Z,13.07
2018-01-11T04:24:36.218Z,13.10
2018-01-11T04:27:03.742Z,11.03
2018-01-11T04:29:31.290Z,11.77
2018-01-11T04:31:58.823Z,11.77
2018-01-11T04:34:26.350Z,12.43
2018-01-11T04:36:54.666Z,12.73
2018-01-11T04:39:22.195Z,12.50
2018-01-11T04:41:49.746Z,10.70
2018-01-11T04:44:18.043Z,11.30
2018-01-11T04:46:45.593Z,10.13
2018-01-11T04:49:13.126Z,11.37
2018-01-11T04:51:40.674Z,11.00
2018-01-11T04:54:08.206Z,12.27
2018-01-11T04:56:35.752Z,12.30
2018-01-11T04:59:03.281Z,13.10
2018-01-11T05:01:31.599Z,12.27
2018-01-11T05:03:59.122Z,11.90
2018-01-11T05:06:27.433Z,10.57
2018-01-11T05:08:54.956Z,14.00
2018-01-11T05:11:23.269Z,12.40
2018-01-11T05:13:50.800Z,12.70
2018-01-11T05:16:18.346Z,13.37
2018-01-11T05:18:46.644Z,14.10
2018-01-11T05:21:14.198Z,12.90
2018-01-11T05:23:41.726Z,13.70
2018-01-11T05:26:09.273Z,12.90
2018-01-11T05:28:36.806Z,13.20
2018-01-11T05:31:04.381Z,12.53
2018-01-11T05:33:31.914Z,12.60
2018-01-11T05:35:59.461Z,12.60
2018-01-11T05:38:26.982Z,12.90
2018-01-11T05:40:54.774Z,14.27
2018-01-11T05:43:22.772Z,13.23
2018-01-11T05:45:50.317Z,13.00
2018-01-11T05:48:17.893Z,14.20
2018-01-11T05:50:45.424Z,13.33
2018-01-11T05:53:12.981Z,13.43
2018-01-11T05:55:41.381Z,12.50
2018-01-11T05:58:08.978Z,12.00
2018-01-11T06:00:36.517Z,10.83
2018-01-11T06:03:04.069Z,12.23
2018-01-11T06:05:31.594Z,12.00
2018-01-11T06:07:59.910Z,11.43
2018-01-11T06:10:27.482Z,10.70
2018-01-11T06:12:55.030Z,11.23
2018-01-11T06:15:22.550Z,11.70
2018-01-11T06:17:51.795Z,10.20
2018-01-11T06:20:19.362Z,11.67
2018-01-11T06:22:46.914Z,10.90
2018-01-11T06:25:14.437Z,11.43
2018-01-11T06:27:42.758Z,11.60
2018-01-11T06:51:38.530Z,16.40
2018-01-11T06:54:06.098Z,17.50
2018-01-11T06:56:33.626Z,17.17
2018-01-11T06:59:01.185Z,16.40
2018-01-11T07:01:28.709Z,18.67
2018-01-11T07:03:57.022Z,15.77
2018-01-11T07:06:24.546Z,16.27
2018-01-11T07:08:52.864Z,17.70
2018-01-11T07:11:20.395Z,16.43
2018-01-11T07:13:47.963Z,15.70
2018-01-11T07:16:15.491Z,14.47
2018-01-11T07:18:43.816Z,15.33
2018-01-11T07:21:11.356Z,13.47
2018-01-11T07:23:38.913Z,13.97
2018-01-11T07:26:06.446Z,16.43
2018-01-11T07:28:34.773Z,16.93
2018-01-11T07:31:02.307Z,14.23
2018-01-11T07:33:30.622Z,14.03
2018-01-11T07:35:58.150Z,14.43
2018-01-11T07:38:25.701Z,14.07
2018-01-11T07:40:54.000Z,15.70
2018-01-11T07:43:21.556Z,15.40
2018-01-11T07:45:49.080Z,13.90
2018-01-11T07:48:17.401Z,14.53
2018-01-11T07:50:44.934Z,14.77
2018-01-11T07:53:13.247Z,15.70
2018-01-11T07:55:40.774Z,14.23
2018-01-11T07:58:08.330Z,13.77
2018-01-11T08:00:35.867Z,15.17
2018-01-11T08:03:03.398Z,15.03
2018-01-11T08:05:30.953Z,15.53
2018-01-11T08:07:58.474Z,14.87
2018-01-11T08:10:26.022Z,15.73
2018-01-11T08:12:54.316Z,14.27
2018-01-11T08:15:21.870Z,16.83
2018-01-11T08:17:49.401Z,19.40
2018-01-11T08:20:16.999Z,18.87
2018-01-11T08:22:45.274Z,21.40
2018-01-11T08:25:12.831Z,22.10
2018-01-11T08:27:40.358Z,21.30
2018-01-11T08:30:07.914Z,18.87
2018-01-11T08:32:35.443Z,19.57
2018-01-11T08:35:03.006Z,19.80
2018-01-11T08:37:30.545Z,19.60
2018-01-11T08:39:58.094Z,20.43
2018-01-11T08:42:25.622Z,20.93
2018-01-11T08:44:53.941Z,20.80
2018-01-11T08:47:21.472Z,22.23
2018-01-11T08:49:49.032Z,21.83
2018-01-11T08:52:17.330Z,19.20
2018-01-11T08:54:44.870Z,18.30
2018-01-11T08:57:13.157Z,19.87
2018-01-11T08:59:40.710Z,19.50
2018-01-11T09:02:08.242Z,20.87
2018-01-11T09:04:35.794Z,17.17
2018-01-11T09:07:03.342Z,17.20
2018-01-11T09:09:30.901Z,15.97
2018-01-11T09:11:59.199Z,15.73
2018-01-11T09:14:26.765Z,16.77
2018-01-11T09:16:55.066Z,16.27
2018-01-11T09:19:22.623Z,14.53
2018-01-11T09:21:50.158Z,16.40
2018-01-11T09:24:17.713Z,15.63
2018-01-11T09:26:45.238Z,14.00
2018-01-11T09:29:12.801Z,13.70
2018-01-11T09:31:40.345Z,14.40
2018-01-11T09:34:07.895Z,15.10
2018-01-11T09:36:35.426Z,17.10
2018-01-11T09:39:03.754Z,16.57
2018-01-11T09:41:31.286Z,16.57
2018-01-11T09:43:58.846Z,15.70
2018-01-11T09:46:26.375Z,15.27
2018-01-11T09:48:54.743Z,15.60
2018-01-11T09:51:22.252Z,14.10
2018-01-11T09:53:49.814Z,13.67
2018-01-11T09:56:17.341Z,15.10
2018-01-11T09:58:45.662Z,14.97
2018-01-11T10:01:13.198Z,12.47
2018-01-11T10:03:40.754Z,12.80
2018-01-11T10:06:08.286Z,13.43
2018-01-11T10:08:36.587Z,11.70
2018-01-11T10:11:04.894Z,13.73
2018-01-11T10:13:32.423Z,14.50
2018-01-11T10:15:59.973Z,13.97
2018-01-11T10:18:28.266Z,13.80
2018-01-11T10:20:55.822Z,13.43
2018-01-11T10:23:23.408Z,14.77
2018-01-11T10:25:50.929Z,15.37
2018-01-11T10:28:19.224Z,15.57
2018-01-11T10:30:46.774Z,15.63
2018-01-11T10:33:15.074Z,15.67
2018-01-11T10:35:42.633Z,14.93
2018-01-11T10:38:10.162Z,13.97
2018-01-11T10:40:38.484Z,13.10
2018-01-11T10:43:06.011Z,13.00
2018-01-11T10:45:33.570Z,14.20
2018-01-11T10:48:01.106Z,12.40
2018-01-11T10:50:29.426Z,12.53
2018-01-11T10:52:56.946Z,12.00
2018-01-11T10:55:25.270Z,11.40
2018-01-11T10:57:52.811Z,13.03
2018-01-11T11:00:20.375Z,12.20
2018-01-11T11:02:49.826Z,11.63
2018-01-11T11:05:17.381Z,12.60
2018-01-11T11:07:44.929Z,13.00
2018-01-11T11:10:12.487Z,12.73
2018-01-11T11:12:40.018Z,12.33
2018-01-11T11:15:07.574Z,12.53
2018-01-11T11:17:35.117Z,11.10
2018-01-11T11:20:03.482Z,11.90
2018-01-11T11:22:31.010Z,12.40
2018-01-11T11:24:58.571Z,11.27
2018-01-11T11:27:26.114Z,11.57
2018-01-11T11:29:53.669Z,12.90
2018-01-11T11:32:21.202Z,10.33
2018-01-11T11:34:48.763Z,10.80
2018-01-11T11:37:16.300Z,11.30
2018-01-11T11:39:44.634Z,10.00
2018-01-11T11:42:12.163Z,13.33
2018-01-11T11:44:39.724Z,12.60
2018-01-11T11:47:07.251Z,13.20
2018-01-11T11:49:34.820Z,15.20
2018-01-11T11:52:03.125Z,14.73
2018-01-11T11:54:30.682Z,14.67
2018-01-11T11:56:58.210Z,14.63
2018-01-11T11:59:25.771Z,12.77
2018-01-11T12:01:54.076Z,15.90
2018-01-11T12:04:21.629Z,14.93
2018-01-11T12:06:49.921Z,14.97
2018-01-11T12:09:17.472Z,13.70
2018-01-11T12:11:45.003Z,14.70
2018-01-11T12:14:13.305Z,14.67
2018-01-11T12:16:40.853Z,13.93
2018-01-11T12:19:09.150Z,15.13
2018-01-11T12:21:36.702Z,13.63
2018-01-11T12:24:04.238Z,13.40
2018-01-11T12:26:32.564Z,13.80
2018-01-11T12:29:00.086Z,12.67
2018-01-11T12:31:28.414Z,12.53
2018-01-11T12:33:55.946Z,11.50
2018-01-11T12:36:23.505Z,12.27
2018-01-11T12:38:51.038Z,13.90
2018-01-11T12:41:19.356Z,12.23
2018-01-11T12:43:46.885Z,12.23
2018-01-11T12:46:14.449Z,12.00
2018-01-11T12:48:41.987Z,11.90
2018-01-11T12:51:09.546Z,12.17
2018-01-11T12:53:37.077Z,11.10
2018-01-11T12:56:04.634Z,10.80
2018-01-11T12:58:32.168Z,10.50
2018-01-11T13:00:59.732Z,10.83
2018-01-11T13:03:27.257Z,11.03
2018-01-11T13:05:55.577Z,9.63
2018-01-11T13:08:23.101Z,9.90
2018-01-11T13:10:50.650Z,9.70
2018-01-11T13:13:18.950Z,10.10
2018-01-11T13:15:46.509Z,9.27
2018-01-11T13:18:14.035Z,8.60
2018-01-11T13:20:41.594Z,9.07
2018-01-11T13:23:09.166Z,9.13
2018-01-11T13:25:36.703Z,9.50
2018-01-11T13:28:04.230Z,9.93
2018-01-11T13:30:31.781Z,10.40
2018-01-11T13:32:59.311Z,11.53
2018-01-11T13:35:27.634Z,9.80
2018-01-11T13:37:55.939Z,10.17
2018-01-11T13:40:23.499Z,9.20
2018-01-11T13:42:51.030Z,10.50
2018-01-11T13:45:18.586Z,10.03
2018-01-11T13:47:46.114Z,8.97
2018-01-11T13:50:13.667Z,9.63
2018-01-11T13:52:41.963Z,9.17
2018-01-11T13:55:09.516Z,9.13
2018-01-11T13:57:37.039Z,9.40
2018-01-11T14:00:04.602Z,9.80
2018-01-11T14:02:32.126Z,10.20
2018-01-11T14:04:59.675Z,9.30
2018-01-11T14:07:27.211Z,10.00
2018-01-11T14:09:54.774Z,9.60
2018-01-11T14:12:22.307Z,9.80
2018-01-11T14:14:50.630Z,10.50
2018-01-11T14:17:18.164Z,11.10
2018-01-11T14:19:45.721Z,10.77
2018-01-11T14:22:13.254Z,9.60
2018-01-11T14:24:40.782Z,9.70
2018-01-11T14:27:08.346Z,10.27
2018-01-11T14:29:35.879Z,12.07
2018-01-11T14:32:03.430Z,11.60
2018-01-11T14:34:30.957Z,12.93
2018-01-11T14:36:59.286Z,12.17
2018-01-11T14:39:26.817Z,12.70
2018-01-11T14:41:54.367Z,12.50
2018-01-11T14:44:22.666Z,12.93
2018-01-11T14:46:50.222Z,12.13
2018-01-11T14:49:17.750Z,12.80
2018-01-11T14:51:45.302Z,11.80
2018-01-11T14:54:12.826Z,11.33
2018-01-11T14:56:40.383Z,12.00
2018-01-11T14:59:07.918Z,11.13
2018-01-11T15:01:35.473Z,11.60
2018-01-11T15:04:03.001Z,11.43
2018-01-11T15:06:30.565Z,11.07
2018-01-11T15:08:58.102Z,11.23
2018-01-11T15:11:25.652Z,12.33
2018-01-11T15:13:53.182Z,11.57
2018-01-11T15:16:20.726Z,12.60
2018-01-11T15:18:48.259Z,11.80
2018-01-11T15:21:15.823Z,12.80
2018-01-11T15:23:44.123Z,11.60
2018-01-11T15:26:11.684Z,12.07
2018-01-11T15:28:39.214Z,12.57
2018-01-11T15:31:06.767Z,11.67
2018-01-11T15:33:34.307Z,11.73
2018-01-11T15:36:01.874Z,12.40
2018-01-11T15:38:29.406Z,12.73
2018-01-11T15:40:56.963Z,13.00
2018-01-11T15:43:24.498Z,13.80
2018-01-11T15:45:52.046Z,12.10
2018-01-11T15:48:19.594Z,12.80
2018-01-11T15:50:47.154Z,12.13
2018-01-11T15:53:14.682Z,12.83
2018-01-11T15:55:42.266Z,13.27
2018-01-11T15:58:09.798Z,12.80
2018-01-11T16:00:37.358Z,13.83
2018-01-11T16:03:04.923Z,12.90
2018-01-11T16:05:32.483Z,13.80
2018-01-11T16:08:00.790Z,13.87
2018-01-11T16:10:29.118Z,13.30
2018-01-11T16:12:56.649Z,12.50
2018-01-11T16:15:24.971Z,13.87
2018-01-11T16:17:52.493Z,14.00
2018-01-11T16:20:20.023Z,15.00
2018-01-11T16:22:47.582Z,13.93
2018-01-11T16:25:15.106Z,17.23
2018-01-11T16:27:42.658Z,17.37
2018-01-11T16:30:10.195Z,16.20
2018-01-11T16:32:37.751Z,13.17
2018-01-11T16:35:05.278Z,13.53
2018-01-11T16:37:32.843Z,13.97
2018-01-11T16:40:00.366Z,13.80
2018-01-11T16:42:27.942Z,13.10
2018-01-11T16:44:55.534Z,13.97
2018-01-11T16:47:23.058Z,13.10
2018-01-11T16:49:50.600Z,14.50
2018-01-11T16:52:18.148Z,15.03
2018-01-11T16:54:45.685Z,16.07
2018-01-11T16:57:13.245Z,17.67
2018-01-11T16:59:40.782Z,16.03
2018-01-11T17:02:08.547Z,18.53
2018-01-11T17:04:36.847Z,17.47
2018-01-11T17:07:04.403Z,17.93
2018-01-11T17:09:32.711Z,17.00
2018-01-11T17:12:00.258Z,17.27
2018-01-11T17:14:27.809Z,16.87
2018-01-11T17:16:55.366Z,15.93
2018-01-11T17:19:22.902Z,16.10
2018-01-11T17:21:51.230Z,14.87
2018-01-11T17:24:18.762Z,14.67
2018-01-11T17:26:46.318Z,15.20
2018-01-11T17:29:13.863Z,15.97
2018-01-11T17:31:42.182Z,14.93
2018-01-11T17:34:09.712Z,16.47
2018-01-11T17:36:37.262Z,18.47
2018-01-11T17:39:05.560Z,17.57
2018-01-11T17:41:33.262Z,17.20
2018-01-11T17:44:00.834Z,18.13
2018-01-11T17:46:28.382Z,17.57
2018-01-11T17:48:55.909Z,17.43
2018-01-11T17:51:23.473Z,17.83
2018-01-11T17:53:51.012Z,19.20
2018-01-11T17:56:18.598Z,19.23
2018-01-11T17:58:46.133Z,18.10
2018-01-11T18:01:13.698Z,19.23
2018-01-11T18:03:41.223Z,20.93
2018-01-11T18:06:08.802Z,19.47
2018-01-11T18:08:36.355Z,20.57
2018-01-11T18:11:04.681Z,19.50
2018-01-11T18:13:32.206Z,20.20
2018-01-11T18:15:59.765Z,19.73
2018-01-11T18:18:28.078Z,19.07
2018-01-11T18:20:55.637Z,17.63
2018-01-11T18:23:23.175Z,18.20
2018-01-11T18:25:50.702Z,19.27
2018-01-11T18:28:18.258Z,17.00
2018-01-11T18:30:45.788Z,17.70
2018-01-11T18:33:13.347Z,18.07
2018-01-11T18:35:40.874Z,17.57
2018-01-11T18:38:08.434Z,16.50
2018-01-11T18:40:35.970Z,17.00
2018-01-11T18:43:04.286Z,16.73
2018-01-11T18:45:31.813Z,16.90
2018-01-11T18:48:00.135Z,16.93
2018-01-11T18:50:27.667Z,16.80
2018-01-11T18:52:55.216Z,15.80
2018-01-11T18:55:22.754Z,15.63
2018-01-11T18:57:51.071Z,18.03
2018-01-11T19:00:18.607Z,14.23
2018-01-11T19:02:47.543Z,15.20
2018-01-11T19:05:15.186Z,16.20
2018-01-11T19:07:42.750Z,14.37
2018-01-11T19:10:10.271Z,15.30
2018-01-11T19:12:38.590Z,14.17
2018-01-11T19:15:06.122Z,18.30
2018-01-11T19:17:33.677Z,18.73
2018-01-11T19:20:01.966Z,17.70
2018-01-11T19:22:29.517Z,16.90
2018-01-11T19:24:57.050Z,19.00
2018-01-11T19:27:24.607Z,18.37
2018-01-11T19:29:52.142Z,16.33
2018-01-11T19:32:19.706Z,16.30
2018-01-11T19:34:47.565Z,16.33
2018-01-11T19:37:15.964Z,15.00
2018-01-11T19:39:43.486Z,15.03
2018-01-11T19:42:11.051Z,15.40
2018-01-11T19:44:38.783Z,15.43
2018-01-11T19:47:06.403Z,15.63
2018-01-11T19:49:34.097Z,13.40
2018-01-11T19:52:02.418Z,14.40
2018-01-11T19:54:29.958Z,15.23
2018-01-11T19:56:57.511Z,14.50
2018-01-11T19:59:25.043Z,15.20
2018-01-11T20:01:52.602Z,17.50
2018-01-11T20:04:20.134Z,16.80
2018-01-11T20:06:47.706Z,17.00
2018-01-11T20:09:15.241Z,16.20
2018-01-11T20:11:42.793Z,17.17
2018-01-11T20:14:10.325Z,17.70
2018-01-11T20:16:37.886Z,15.90
2018-01-11T20:19:05.414Z,15.87
2018-01-11T20:21:32.973Z,14.73
2018-01-11T20:24:00.502Z,15.00
2018-01-11T20:26:28.062Z,14.37
2018-01-11T20:28:55.595Z,13.20
2018-01-11T20:31:23.150Z,14.37
2018-01-11T20:33:50.746Z,14.40
2018-01-11T20:36:18.274Z,16.33
2018-01-11T20:38:45.834Z,18.87
2018-01-11T20:41:13.362Z,16.83
2018-01-11T20:43:41.698Z,21.27
2018-01-11T20:46:09.226Z,20.40
2018-01-11T20:48:36.786Z,20.23
2018-01-11T20:51:04.319Z,22.00
2018-01-11T20:53:32.643Z,20.60
2018-01-11T20:56:00.179Z,21.23
2018-01-11T20:58:27.805Z,20.73
2018-01-11T21:00:55.339Z,20.27
2018-01-11T21:03:22.893Z,21.70
2018-01-11T21:05:50.710Z,20.80
2018-01-11T21:08:19.038Z,20.80
2018-01-11T21:10:46.571Z,19.83
2018-01-11T21:13:14.130Z,18.57
2018-01-11T21:15:41.665Z,18.20
2018-01-11T21:18:09.995Z,16.30
2018-01-11T21:20:37.531Z,17.23
2018-01-11T21:23:05.086Z,15.30
2018-01-11T21:25:32.612Z,14.67
2018-01-11T21:28:00.981Z,15.43
2018-01-11T21:30:28.510Z,15.37
2018-01-11T21:32:56.101Z,15.17
2018-01-11T21:35:24.452Z,15.73
2018-01-11T21:37:52.010Z,15.83
2018-01-11T21:40:19.547Z,16.37
2018-01-11T21:42:47.094Z,16.90
2018-01-11T21:45:14.631Z,16.10
2018-01-11T21:47:42.955Z,16.50
2018-01-11T21:50:10.475Z,15.70
2018-01-11T21:52:38.802Z,14.47
2018-01-11T21:55:06.327Z,14.80
2018-01-11T21:57:33.962Z,14.50
2018-01-11T22:00:01.497Z,13.60
2018-01-11T22:02:29.058Z,14.30
2018-01-11T22:04:56.614Z,16.27
2018-01-11T22:07:24.177Z,15.10
2018-01-11T22:09:51.708Z,15.27
2018-01-11T22:12:19.276Z,14.50
2018-01-11T22:14:46.810Z,17.00
2018-01-11T22:17:14.367Z,16.60
2018-01-11T22:19:41.894Z,17.70
2018-01-11T22:22:09.450Z,15.83
2018-01-11T22:24:36.984Z,16.77
2018-01-11T22:27:04.542Z,16.20
2018-01-11T22:29:32.839Z,14.53
2018-01-11T22:32:00.390Z,15.83
2018-01-11T22:34:27.926Z,14.80
2018-01-11T22:36:55.473Z,15.30
2018-01-11T22:39:22.994Z,17.37
2018-01-11T22:41:50.523Z,15.37
2018-01-11T22:44:18.075Z,16.73
2018-01-11T22:46:46.363Z,17.67
2018-01-11T22:49:13.914Z,15.70
2018-01-11T22:51:41.448Z,16.43
2018-01-11T22:54:09.030Z,16.20
2018-01-11T22:56:36.559Z,16.40
2018-01-11T22:59:04.114Z,16.40
2018-01-11T23:01:31.648Z,17.07
2018-01-11T23:03:59.206Z,16.30
2018-01-11T23:06:26.754Z,16.50
2018-01-11T23:08:54.305Z,15.43
2018-01-11T23:11:27.390Z,14.50
2018-01-11T23:13:54.947Z,17.70
2018-01-11T23:16:22.475Z,15.10
2018-01-11T23:18:50.018Z,15.00
2018-01-11T23:21:17.550Z,16.87
2018-01-11T23:23:45.107Z,16.23
2018-01-11T23:26:12.770Z,17.90
2018-01-11T23:28:40.339Z,15.70
2018-01-11T23:31:08.639Z,17.20
2018-01-11T23:33:36.199Z,16.50
2018-01-11T23:36:03.735Z,15.93
2018-01-11T23:38:32.082Z,17.13
2018-01-11T23:40:59.606Z,16.50
2018-01-11T23:43:27.154Z,17.73
2018-01-11T23:45:54.686Z,14.43
2018-01-11T23:48:22.234Z,16.10
2018-01-11T23:50:49.772Z,15.67
2018-01-11T23:53:17.321Z,16.50
2018-01-11T23:55:44.846Z,16.30
2018-01-11T23:58:13.158Z,16.40
